sensor_id;sensor_type;location;lat;lon;timestamp;temperature;humidity
60727;DHT22;46577;49.004;12.120;2023-05-29T00:01:40;15.60;68.00
60727;DHT22;46577;49.004;12.120;2023-05-29T00:04:06;15.60;68.10
60727;DHT22;46577;49.004;12.120;2023-05-29T00:06:31;15.60;68.10
60727;DHT22;46577;49.004;12.120;2023-05-29T00:08:57;15.60;68.00
60727;DHT22;46577;49.004;12.120;2023-05-29T00:11:23;15.60;68.00
60727;DHT22;46577;49.004;12.120;2023-05-29T00:13:48;15.50;68.30
60727;DHT22;46577;49.004;12.120;2023-05-29T00:16:14;15.50;68.80
60727;DHT22;46577;49.004;12.120;2023-05-29T00:18:40;15.50;69.30
60727;DHT22;46577;49.004;12.120;2023-05-29T00:21:11;15.10;69.80
60727;DHT22;46577;49.004;12.120;2023-05-29T00:23:36;15.40;70.50
60727;DHT22;46577;49.004;12.120;2023-05-29T00:26:02;15.30;71.00
60727;DHT22;46577;49.004;12.120;2023-05-29T00:28:28;15.20;72.10
60727;DHT22;46577;49.004;12.120;2023-05-29T00:30:53;15.20;72.30
60727;DHT22;46577;49.004;12.120;2023-05-29T00:33:19;15.10;72.90
60727;DHT22;46577;49.004;12.120;2023-05-29T00:35:45;15.10;74.10
60727;DHT22;46577;49.004;12.120;2023-05-29T00:38:11;15.00;74.50
60727;DHT22;46577;49.004;12.120;2023-05-29T00:40:36;14.90;74.80
60727;DHT22;46577;49.004;12.120;2023-05-29T00:43:02;14.90;75.30
60727;DHT22;46577;49.004;12.120;2023-05-29T00:45:28;14.80;76.20
60727;DHT22;46577;49.004;12.120;2023-05-29T00:47:54;14.80;76.50
60727;DHT22;46577;49.004;12.120;2023-05-29T00:50:21;14.80;76.70
60727;DHT22;46577;49.004;12.120;2023-05-29T00:52:49;14.80;77.20
60727;DHT22;46577;49.004;12.120;2023-05-29T00:55:15;14.70;77.50
60727;DHT22;46577;49.004;12.120;2023-05-29T00:57:41;14.60;78.20
60727;DHT22;46577;49.004;12.120;2023-05-29T01:00:08;14.60;79.20
60727;DHT22;46577;49.004;12.120;2023-05-29T01:02:40;14.60;79.80
60727;DHT22;46577;49.004;12.120;2023-05-29T01:05:06;14.50;80.10
60727;DHT22;46577;49.004;12.120;2023-05-29T01:07:35;16.40;82.80
60727;DHT22;46577;49.004;12.120;2023-05-29T01:10:01;14.50;81.40
60727;DHT22;46577;49.004;12.120;2023-05-29T01:12:36;14.40;82.10
60727;DHT22;46577;49.004;12.120;2023-05-29T01:21:00;14.30;84.20
60727;DHT22;46577;49.004;12.120;2023-05-29T01:28:57;14.10;85.20
60727;DHT22;46577;49.004;12.120;2023-05-29T01:31:26;14.10;86.00
60727;DHT22;46577;49.004;12.120;2023-05-29T01:33:58;14.10;85.80
60727;DHT22;46577;49.004;12.120;2023-05-29T01:36:26;14.00;86.60
60727;DHT22;46577;49.004;12.120;2023-05-29T01:38:53;14.00;86.90
60727;DHT22;46577;49.004;12.120;2023-05-29T01:41:21;14.00;87.30
60727;DHT22;46577;49.004;12.120;2023-05-29T01:43:47;13.90;88.20
60727;DHT22;46577;49.004;12.120;2023-05-29T01:46:14;13.80;88.10
60727;DHT22;46577;49.004;12.120;2023-05-29T01:48:44;13.80;87.70
60727;DHT22;46577;49.004;12.120;2023-05-29T01:51:11;13.80;88.60
60727;DHT22;46577;49.004;12.120;2023-05-29T01:53:41;13.70;88.40
60727;DHT22;46577;49.004;12.120;2023-05-29T01:56:07;13.70;88.90
60727;DHT22;46577;49.004;12.120;2023-05-29T01:58:38;13.70;89.30
60727;DHT22;46577;49.004;12.120;2023-05-29T02:01:06;13.60;90.10
60727;DHT22;46577;49.004;12.120;2023-05-29T02:03:32;13.60;90.00
60727;DHT22;46577;49.004;12.120;2023-05-29T02:05:59;13.50;90.00
60727;DHT22;46577;49.004;12.120;2023-05-29T02:08:26;13.50;90.40
60727;DHT22;46577;49.004;12.120;2023-05-29T02:10:51;13.50;90.50
60727;DHT22;46577;49.004;12.120;2023-05-29T02:13:17;13.50;90.70
60727;DHT22;46577;49.004;12.120;2023-05-29T02:15:43;13.50;91.10
60727;DHT22;46577;49.004;12.120;2023-05-29T02:18:14;13.40;91.00
60727;DHT22;46577;49.004;12.120;2023-05-29T02:20:40;13.40;91.10
60727;DHT22;46577;49.004;12.120;2023-05-29T02:23:09;13.30;91.00
60727;DHT22;46577;49.004;12.120;2023-05-29T02:25:35;13.30;91.00
60727;DHT22;46577;49.004;12.120;2023-05-29T02:28:01;13.30;91.10
60727;DHT22;46577;49.004;12.120;2023-05-29T02:30:28;13.20;91.40
60727;DHT22;46577;49.004;12.120;2023-05-29T02:32:54;13.30;91.50
60727;DHT22;46577;49.004;12.120;2023-05-29T02:35:19;13.20;91.70
60727;DHT22;46577;49.004;12.120;2023-05-29T02:37:51;13.20;92.10
60727;DHT22;46577;49.004;12.120;2023-05-29T02:40:17;13.20;92.00
60727;DHT22;46577;49.004;12.120;2023-05-29T02:42:43;13.20;92.30
60727;DHT22;46577;49.004;12.120;2023-05-29T02:45:09;13.10;92.60
60727;DHT22;46577;49.004;12.120;2023-05-29T02:47:35;13.10;92.70
60727;DHT22;46577;49.004;12.120;2023-05-29T02:50:02;13.00;93.10
60727;DHT22;46577;49.004;12.120;2023-05-29T02:52:28;13.00;93.50
60727;DHT22;46577;49.004;12.120;2023-05-29T02:54:55;12.90;93.60
60727;DHT22;46577;49.004;12.120;2023-05-29T02:57:21;12.90;93.60
60727;DHT22;46577;49.004;12.120;2023-05-29T02:59:47;12.80;93.70
60727;DHT22;46577;49.004;12.120;2023-05-29T03:02:12;12.80;93.70
60727;DHT22;46577;49.004;12.120;2023-05-29T03:04:38;12.70;94.00
60727;DHT22;46577;49.004;12.120;2023-05-29T03:07:04;12.70;94.20
60727;DHT22;46577;49.004;12.120;2023-05-29T03:09:29;12.60;94.30
60727;DHT22;46577;49.004;12.120;2023-05-29T03:11:55;12.70;94.40
60727;DHT22;46577;49.004;12.120;2023-05-29T03:14:20;12.60;94.50
60727;DHT22;46577;49.004;12.120;2023-05-29T03:16:48;12.60;94.70
60727;DHT22;46577;49.004;12.120;2023-05-29T03:19:14;12.60;95.00
60727;DHT22;46577;49.004;12.120;2023-05-29T03:21:40;12.60;94.80
60727;DHT22;46577;49.004;12.120;2023-05-29T03:24:06;12.70;94.80
60727;DHT22;46577;49.004;12.120;2023-05-29T03:26:32;12.70;94.70
60727;DHT22;46577;49.004;12.120;2023-05-29T03:28:57;12.70;95.00
60727;DHT22;46577;49.004;12.120;2023-05-29T03:31:23;12.60;95.10
60727;DHT22;46577;49.004;12.120;2023-05-29T03:33:49;12.60;95.10
60727;DHT22;46577;49.004;12.120;2023-05-29T03:36:15;12.60;95.20
60727;DHT22;46577;49.004;12.120;2023-05-29T03:38:42;12.60;95.10
60727;DHT22;46577;49.004;12.120;2023-05-29T03:41:08;12.60;95.10
60727;DHT22;46577;49.004;12.120;2023-05-29T03:43:34;12.60;95.00
60727;DHT22;46577;49.004;12.120;2023-05-29T03:46:00;12.60;95.20
60727;DHT22;46577;49.004;12.120;2023-05-29T03:48:25;12.60;95.10
60727;DHT22;46577;49.004;12.120;2023-05-29T03:50:51;12.60;94.80
60727;DHT22;46577;49.004;12.120;2023-05-29T03:53:16;12.60;94.90
60727;DHT22;46577;49.004;12.120;2023-05-29T03:55:42;12.60;94.90
60727;DHT22;46577;49.004;12.120;2023-05-29T03:58:08;12.80;95.10
60727;DHT22;46577;49.004;12.120;2023-05-29T04:00:33;12.90;94.60
60727;DHT22;46577;49.004;12.120;2023-05-29T04:02:59;12.90;94.50
60727;DHT22;46577;49.004;12.120;2023-05-29T04:05:25;12.90;94.50
60727;DHT22;46577;49.004;12.120;2023-05-29T04:07:52;13.00;94.50
60727;DHT22;46577;49.004;12.120;2023-05-29T04:10:17;13.10;94.20
60727;DHT22;46577;49.004;12.120;2023-05-29T04:12:43;13.20;94.20
60727;DHT22;46577;49.004;12.120;2023-05-29T04:15:09;13.30;93.70
60727;DHT22;46577;49.004;12.120;2023-05-29T04:17:34;13.40;93.70
60727;DHT22;46577;49.004;12.120;2023-05-29T04:20:00;13.50;93.40
60727;DHT22;46577;49.004;12.120;2023-05-29T04:22:31;13.70;93.20
60727;DHT22;46577;49.004;12.120;2023-05-29T04:24:57;14.00;92.60
60727;DHT22;46577;49.004;12.120;2023-05-29T04:27:22;14.00;91.90
60727;DHT22;46577;49.004;12.120;2023-05-29T04:29:48;14.10;91.70
60727;DHT22;46577;49.004;12.120;2023-05-29T04:32:13;14.30;91.60
60727;DHT22;46577;49.004;12.120;2023-05-29T04:34:39;14.50;91.00
60727;DHT22;46577;49.004;12.120;2023-05-29T04:37:05;14.60;90.60
60727;DHT22;46577;49.004;12.120;2023-05-29T04:39:31;14.80;90.20
60727;DHT22;46577;49.004;12.120;2023-05-29T04:41:57;15.00;89.00
60727;DHT22;46577;49.004;12.120;2023-05-29T04:44:27;15.30;88.10
60727;DHT22;46577;49.004;12.120;2023-05-29T04:46:54;15.50;87.20
60727;DHT22;46577;49.004;12.120;2023-05-29T04:49:21;15.60;85.40
60727;DHT22;46577;49.004;12.120;2023-05-29T04:51:47;15.80;85.40
60727;DHT22;46577;49.004;12.120;2023-05-29T04:54:13;16.10;84.10
60727;DHT22;46577;49.004;12.120;2023-05-29T04:56:39;16.50;83.00
60727;DHT22;46577;49.004;12.120;2023-05-29T04:59:07;16.90;81.50
60727;DHT22;46577;49.004;12.120;2023-05-29T05:01:34;17.40;79.30
60727;DHT22;46577;49.004;12.120;2023-05-29T05:04:00;18.00;77.00
60727;DHT22;46577;49.004;12.120;2023-05-29T05:06:26;18.40;74.80
60727;DHT22;46577;49.004;12.120;2023-05-29T05:08:52;18.90;72.50
60727;DHT22;46577;49.004;12.120;2023-05-29T05:11:18;19.30;70.40
60727;DHT22;46577;49.004;12.120;2023-05-29T05:13:44;19.80;68.70
60727;DHT22;46577;49.004;12.120;2023-05-29T05:16:10;20.30;66.20
60727;DHT22;46577;49.004;12.120;2023-05-29T05:18:36;20.50;64.90
60727;DHT22;46577;49.004;12.120;2023-05-29T05:21:02;20.50;63.10
60727;DHT22;46577;49.004;12.120;2023-05-29T05:23:29;20.70;63.10
60727;DHT22;46577;49.004;12.120;2023-05-29T05:25:55;20.80;62.40
60727;DHT22;46577;49.004;12.120;2023-05-29T05:28:21;21.10;61.00
60727;DHT22;46577;49.004;12.120;2023-05-29T05:30:47;21.40;59.60
60727;DHT22;46577;49.004;12.120;2023-05-29T05:33:12;21.20;59.70
60727;DHT22;46577;49.004;12.120;2023-05-29T05:35:38;21.40;58.80
60727;DHT22;46577;49.004;12.120;2023-05-29T05:38:04;21.80;58.00
60727;DHT22;46577;49.004;12.120;2023-05-29T05:40:29;21.90;57.70
60727;DHT22;46577;49.004;12.120;2023-05-29T05:42:55;22.20;56.80
60727;DHT22;46577;49.004;12.120;2023-05-29T05:45:21;22.40;56.50
60727;DHT22;46577;49.004;12.120;2023-05-29T05:47:47;22.50;55.40
60727;DHT22;46577;49.004;12.120;2023-05-29T05:50:13;22.60;55.40
60727;DHT22;46577;49.004;12.120;2023-05-29T05:52:38;22.80;55.20
60727;DHT22;46577;49.004;12.120;2023-05-29T05:55:04;22.70;55.00
60727;DHT22;46577;49.004;12.120;2023-05-29T05:57:30;22.60;55.00
60727;DHT22;46577;49.004;12.120;2023-05-29T06:00:01;22.80;55.10
60727;DHT22;46577;49.004;12.120;2023-05-29T06:02:29;23.40;53.80
60727;DHT22;46577;49.004;12.120;2023-05-29T06:04:55;23.50;52.10
60727;DHT22;46577;49.004;12.120;2023-05-29T06:07:21;23.80;52.90
60727;DHT22;46577;49.004;12.120;2023-05-29T06:09:46;24.40;50.40
60727;DHT22;46577;49.004;12.120;2023-05-29T06:12:12;24.60;50.30
60727;DHT22;46577;49.004;12.120;2023-05-29T06:14:38;25.10;49.60
60727;DHT22;46577;49.004;12.120;2023-05-29T06:17:04;25.50;48.30
60727;DHT22;46577;49.004;12.120;2023-05-29T06:19:29;26.30;46.90
60727;DHT22;46577;49.004;12.120;2023-05-29T06:21:55;27.00;45.50
60727;DHT22;46577;49.004;12.120;2023-05-29T06:24:20;27.80;44.00
60727;DHT22;46577;49.004;12.120;2023-05-29T06:26:46;28.90;42.10
60727;DHT22;46577;49.004;12.120;2023-05-29T06:29:12;29.70;39.80
60727;DHT22;46577;49.004;12.120;2023-05-29T06:31:37;30.10;38.30
60727;DHT22;46577;49.004;12.120;2023-05-29T06:34:03;30.60;37.80
60727;DHT22;46577;49.004;12.120;2023-05-29T06:36:28;31.10;36.40
60727;DHT22;46577;49.004;12.120;2023-05-29T06:38:54;31.30;36.00
60727;DHT22;46577;49.004;12.120;2023-05-29T06:41:20;32.00;34.10
60727;DHT22;46577;49.004;12.120;2023-05-29T06:43:46;32.10;33.20
60727;DHT22;46577;49.004;12.120;2023-05-29T06:46:12;32.30;33.40
60727;DHT22;46577;49.004;12.120;2023-05-29T06:48:38;32.90;32.80
60727;DHT22;46577;49.004;12.120;2023-05-29T06:51:04;33.40;31.40
60727;DHT22;46577;49.004;12.120;2023-05-29T06:53:37;33.80;30.50
60727;DHT22;46577;49.004;12.120;2023-05-29T06:56:03;34.60;29.60
60727;DHT22;46577;49.004;12.120;2023-05-29T06:58:30;34.50;29.70
60727;DHT22;46577;49.004;12.120;2023-05-29T07:00:56;34.50;29.30
60727;DHT22;46577;49.004;12.120;2023-05-29T07:03:21;34.60;29.00
60727;DHT22;46577;49.004;12.120;2023-05-29T07:05:47;35.20;28.60
60727;DHT22;46577;49.004;12.120;2023-05-29T07:08:13;35.40;28.00
60727;DHT22;46577;49.004;12.120;2023-05-29T07:10:39;35.60;28.20
60727;DHT22;46577;49.004;12.120;2023-05-29T07:13:04;36.10;28.60
60727;DHT22;46577;49.004;12.120;2023-05-29T07:15:32;36.00;28.40
60727;DHT22;46577;49.004;12.120;2023-05-29T07:17:57;37.30;26.70
60727;DHT22;46577;49.004;12.120;2023-05-29T07:20:23;37.60;26.20
60727;DHT22;46577;49.004;12.120;2023-05-29T07:22:48;38.30;25.90
60727;DHT22;46577;49.004;12.120;2023-05-29T07:25:14;38.30;25.30
60727;DHT22;46577;49.004;12.120;2023-05-29T07:27:40;39.30;24.90
60727;DHT22;46577;49.004;12.120;2023-05-29T07:30:06;39.20;24.40
60727;DHT22;46577;49.004;12.120;2023-05-29T07:32:32;39.50;24.40
60727;DHT22;46577;49.004;12.120;2023-05-29T07:34:58;40.60;23.50
60727;DHT22;46577;49.004;12.120;2023-05-29T07:37:23;40.60;23.10
60727;DHT22;46577;49.004;12.120;2023-05-29T07:39:49;40.50;22.60
60727;DHT22;46577;49.004;12.120;2023-05-29T07:42:14;40.70;22.70
60727;DHT22;46577;49.004;12.120;2023-05-29T07:44:40;41.20;22.20
60727;DHT22;46577;49.004;12.120;2023-05-29T07:47:08;41.80;21.50
60727;DHT22;46577;49.004;12.120;2023-05-29T07:49:34;42.20;21.00
60727;DHT22;46577;49.004;12.120;2023-05-29T07:52:04;41.30;21.90
60727;DHT22;46577;49.004;12.120;2023-05-29T07:54:31;41.80;21.20
60727;DHT22;46577;49.004;12.120;2023-05-29T07:56:59;41.80;21.50
60727;DHT22;46577;49.004;12.120;2023-05-29T07:59:25;42.30;20.60
60727;DHT22;46577;49.004;12.120;2023-05-29T08:01:51;42.10;21.30
60727;DHT22;46577;49.004;12.120;2023-05-29T08:04:17;42.70;20.40
60727;DHT22;46577;49.004;12.120;2023-05-29T08:06:42;43.00;19.90
60727;DHT22;46577;49.004;12.120;2023-05-29T08:09:09;42.60;20.30
60727;DHT22;46577;49.004;12.120;2023-05-29T08:11:36;41.70;19.50
60727;DHT22;46577;49.004;12.120;2023-05-29T08:14:02;40.80;20.00
60727;DHT22;46577;49.004;12.120;2023-05-29T08:16:28;41.00;20.20
60727;DHT22;46577;49.004;12.120;2023-05-29T08:18:54;40.70;20.10
60727;DHT22;46577;49.004;12.120;2023-05-29T08:21:20;42.00;20.40
60727;DHT22;46577;49.004;12.120;2023-05-29T08:23:46;40.90;19.50
60727;DHT22;46577;49.004;12.120;2023-05-29T08:26:11;41.40;21.40
60727;DHT22;46577;49.004;12.120;2023-05-29T08:28:38;41.10;21.30
60727;DHT22;46577;49.004;12.120;2023-05-29T08:31:03;40.80;20.20
60727;DHT22;46577;49.004;12.120;2023-05-29T08:33:29;39.70;20.20
60727;DHT22;46577;49.004;12.120;2023-05-29T08:35:57;39.50;20.90
60727;DHT22;46577;49.004;12.120;2023-05-29T08:38:23;39.50;21.10
60727;DHT22;46577;49.004;12.120;2023-05-29T08:40:51;40.10;20.90
60727;DHT22;46577;49.004;12.120;2023-05-29T08:43:21;38.00;20.60
60727;DHT22;46577;49.004;12.120;2023-05-29T08:45:51;36.70;21.60
60727;DHT22;46577;49.004;12.120;2023-05-29T08:48:19;36.70;22.30
60727;DHT22;46577;49.004;12.120;2023-05-29T08:50:48;37.60;21.20
60727;DHT22;46577;49.004;12.120;2023-05-29T08:53:16;39.00;22.70
60727;DHT22;46577;49.004;12.120;2023-05-29T08:55:45;39.00;20.10
60727;DHT22;46577;49.004;12.120;2023-05-29T08:58:16;39.10;23.60
60727;DHT22;46577;49.004;12.120;2023-05-29T09:00:43;39.10;21.60
60727;DHT22;46577;49.004;12.120;2023-05-29T09:03:09;40.30;21.40
60727;DHT22;46577;49.004;12.120;2023-05-29T09:05:35;41.00;20.50
60727;DHT22;46577;49.004;12.120;2023-05-29T09:08:05;39.90;19.30
60727;DHT22;46577;49.004;12.120;2023-05-29T09:10:30;39.10;22.00
60727;DHT22;46577;49.004;12.120;2023-05-29T09:12:58;40.20;20.40
60727;DHT22;46577;49.004;12.120;2023-05-29T09:15:24;41.30;19.40
60727;DHT22;46577;49.004;12.120;2023-05-29T09:17:54;42.10;20.20
60727;DHT22;46577;49.004;12.120;2023-05-29T09:20:21;41.50;18.60
60727;DHT22;46577;49.004;12.120;2023-05-29T09:22:56;42.40;21.80
60727;DHT22;46577;49.004;12.120;2023-05-29T09:25:26;40.70;18.50
60727;DHT22;46577;49.004;12.120;2023-05-29T09:27:58;40.30;20.60
60727;DHT22;46577;49.004;12.120;2023-05-29T09:30:38;41.80;20.00
60727;DHT22;46577;49.004;12.120;2023-05-29T09:33:05;41.20;18.30
60727;DHT22;46577;49.004;12.120;2023-05-29T09:35:41;42.10;19.70
60727;DHT22;46577;49.004;12.120;2023-05-29T09:38:08;42.10;18.40
60727;DHT22;46577;49.004;12.120;2023-05-29T09:40:36;41.40;19.20
60727;DHT22;46577;49.004;12.120;2023-05-29T09:43:09;40.70;19.30
60727;DHT22;46577;49.004;12.120;2023-05-29T09:45:40;40.40;19.30
60727;DHT22;46577;49.004;12.120;2023-05-29T09:50:42;39.10;20.00
60727;DHT22;46577;49.004;12.120;2023-05-29T09:53:20;39.50;19.90
60727;DHT22;46577;49.004;12.120;2023-05-29T09:55:48;38.70;19.80
60727;DHT22;46577;49.004;12.120;2023-05-29T09:58:23;39.40;20.30
60727;DHT22;46577;49.004;12.120;2023-05-29T10:00:51;38.80;19.40
60727;DHT22;46577;49.004;12.120;2023-05-29T10:03:18;38.30;19.80
60727;DHT22;46577;49.004;12.120;2023-05-29T10:05:50;40.30;21.00
60727;DHT22;46577;49.004;12.120;2023-05-29T10:08:18;41.40;19.70
60727;DHT22;46577;49.004;12.120;2023-05-29T10:10:46;42.20;18.00
60727;DHT22;46577;49.004;12.120;2023-05-29T10:13:13;43.00;18.80
60727;DHT22;46577;49.004;12.120;2023-05-29T10:15:45;43.20;17.50
60727;DHT22;46577;49.004;12.120;2023-05-29T10:20:38;44.50;16.70
60727;DHT22;46577;49.004;12.120;2023-05-29T10:23:04;44.30;16.40
60727;DHT22;46577;49.004;12.120;2023-05-29T10:25:33;44.30;17.00
60727;DHT22;46577;49.004;12.120;2023-05-29T10:28:01;45.60;17.40
60727;DHT22;46577;49.004;12.120;2023-05-29T10:30:39;46.40;18.40
60727;DHT22;46577;49.004;12.120;2023-05-29T10:38:14;45.20;15.70
60727;DHT22;46577;49.004;12.120;2023-05-29T10:40:42;45.20;17.60
60727;DHT22;46577;49.004;12.120;2023-05-29T10:43:08;44.50;16.20
60727;DHT22;46577;49.004;12.120;2023-05-29T10:45:48;44.00;15.50
60727;DHT22;46577;49.004;12.120;2023-05-29T10:48:35;42.30;16.30
60727;DHT22;46577;49.004;12.120;2023-05-29T10:51:00;42.30;20.20
60727;DHT22;46577;49.004;12.120;2023-05-29T10:53:27;42.80;16.90
60727;DHT22;46577;49.004;12.120;2023-05-29T10:55:56;41.90;18.70
60727;DHT22;46577;49.004;12.120;2023-05-29T10:58:23;41.50;18.60
60727;DHT22;46577;49.004;12.120;2023-05-29T11:00:49;42.60;19.90
60727;DHT22;46577;49.004;12.120;2023-05-29T11:03:19;42.90;17.30
60727;DHT22;46577;49.004;12.120;2023-05-29T11:05:57;43.20;17.50
60727;DHT22;46577;49.004;12.120;2023-05-29T11:08:34;42.30;16.90
60727;DHT22;46577;49.004;12.120;2023-05-29T11:11:01;39.50;16.90
60727;DHT22;46577;49.004;12.120;2023-05-29T11:13:32;37.70;18.30
60727;DHT22;46577;49.004;12.120;2023-05-29T11:18:56;35.90;18.00
60727;DHT22;46577;49.004;12.120;2023-05-29T11:24:00;34.60;24.90
60727;DHT22;46577;49.004;12.120;2023-05-29T11:26:29;34.50;22.70
60727;DHT22;46577;49.004;12.120;2023-05-29T11:29:03;34.10;22.40
60727;DHT22;46577;49.004;12.120;2023-05-29T11:31:37;33.00;24.90
60727;DHT22;46577;49.004;12.120;2023-05-29T11:34:03;32.30;27.30
60727;DHT22;46577;49.004;12.120;2023-05-29T11:36:34;31.90;26.80
60727;DHT22;46577;49.004;12.120;2023-05-29T11:39:01;31.60;28.80
60727;DHT22;46577;49.004;12.120;2023-05-29T11:41:27;31.20;27.30
60727;DHT22;46577;49.004;12.120;2023-05-29T11:44:04;31.10;29.00
60727;DHT22;46577;49.004;12.120;2023-05-29T11:46:31;30.90;26.50
60727;DHT22;46577;49.004;12.120;2023-05-29T11:48:58;30.50;28.10
60727;DHT22;46577;49.004;12.120;2023-05-29T11:51:24;30.60;30.50
60727;DHT22;46577;49.004;12.120;2023-05-29T11:53:50;30.10;27.00
60727;DHT22;46577;49.004;12.120;2023-05-29T11:56:18;30.20;28.20
60727;DHT22;46577;49.004;12.120;2023-05-29T11:58:45;29.90;28.80
60727;DHT22;46577;49.004;12.120;2023-05-29T12:01:11;29.70;28.80
60727;DHT22;46577;49.004;12.120;2023-05-29T12:03:41;29.80;27.70
60727;DHT22;46577;49.004;12.120;2023-05-29T12:06:08;29.80;30.00
60727;DHT22;46577;49.004;12.120;2023-05-29T12:08:34;29.80;29.60
60727;DHT22;46577;49.004;12.120;2023-05-29T12:10:59;29.60;24.20
60727;DHT22;46577;49.004;12.120;2023-05-29T12:13:25;29.30;23.90
60727;DHT22;46577;49.004;12.120;2023-05-29T12:15:59;28.80;25.10
60727;DHT22;46577;49.004;12.120;2023-05-29T12:18:26;28.80;26.10
60727;DHT22;46577;49.004;12.120;2023-05-29T12:21:00;28.90;27.40
60727;DHT22;46577;49.004;12.120;2023-05-29T12:23:27;28.90;28.10
60727;DHT22;46577;49.004;12.120;2023-05-29T12:25:54;28.70;26.60
60727;DHT22;46577;49.004;12.120;2023-05-29T12:28:20;28.40;26.40
60727;DHT22;46577;49.004;12.120;2023-05-29T12:30:47;27.80;25.40
60727;DHT22;46577;49.004;12.120;2023-05-29T12:33:36;27.20;26.70
60727;DHT22;46577;49.004;12.120;2023-05-29T12:36:09;27.50;30.40
60727;DHT22;46577;49.004;12.120;2023-05-29T12:38:50;27.80;34.60
60727;DHT22;46577;49.004;12.120;2023-05-29T12:41:26;27.90;31.50
60727;DHT22;46577;49.004;12.120;2023-05-29T12:43:58;28.10;29.70
60727;DHT22;46577;49.004;12.120;2023-05-29T12:46:25;27.80;27.40
60727;DHT22;46577;49.004;12.120;2023-05-29T12:48:55;27.50;27.00
60727;DHT22;46577;49.004;12.120;2023-05-29T12:51:27;27.30;28.70
60727;DHT22;46577;49.004;12.120;2023-05-29T12:53:53;27.40;30.90
60727;DHT22;46577;49.004;12.120;2023-05-29T12:56:23;27.60;30.40
60727;DHT22;46577;49.004;12.120;2023-05-29T12:58:52;27.80;29.00
60727;DHT22;46577;49.004;12.120;2023-05-29T13:01:18;27.90;31.90
60727;DHT22;46577;49.004;12.120;2023-05-29T13:03:44;27.90;31.80
60727;DHT22;46577;49.004;12.120;2023-05-29T13:06:10;28.00;34.30
60727;DHT22;46577;49.004;12.120;2023-05-29T13:08:36;28.10;38.50
60727;DHT22;46577;49.004;12.120;2023-05-29T13:11:02;28.00;36.30
60727;DHT22;46577;49.004;12.120;2023-05-29T13:13:27;27.90;30.80
60727;DHT22;46577;49.004;12.120;2023-05-29T13:15:53;27.70;31.60
60727;DHT22;46577;49.004;12.120;2023-05-29T13:18:19;27.50;32.30
60727;DHT22;46577;49.004;12.120;2023-05-29T13:20:44;27.50;31.10
60727;DHT22;46577;49.004;12.120;2023-05-29T13:23:10;27.60;33.20
60727;DHT22;46577;49.004;12.120;2023-05-29T13:25:35;27.70;35.80
60727;DHT22;46577;49.004;12.120;2023-05-29T13:28:01;27.70;32.70
60727;DHT22;46577;49.004;12.120;2023-05-29T13:30:27;27.90;36.20
60727;DHT22;46577;49.004;12.120;2023-05-29T13:32:53;27.80;35.70
60727;DHT22;46577;49.004;12.120;2023-05-29T13:35:19;27.80;35.70
60727;DHT22;46577;49.004;12.120;2023-05-29T13:37:45;27.60;32.50
60727;DHT22;46577;49.004;12.120;2023-05-29T13:40:11;27.50;30.20
60727;DHT22;46577;49.004;12.120;2023-05-29T13:42:39;27.20;34.00
60727;DHT22;46577;49.004;12.120;2023-05-29T13:45:05;26.90;30.10
60727;DHT22;46577;49.004;12.120;2023-05-29T13:47:32;26.80;32.20
60727;DHT22;46577;49.004;12.120;2023-05-29T13:49:58;26.80;30.70
60727;DHT22;46577;49.004;12.120;2023-05-29T13:52:24;26.70;29.50
60727;DHT22;46577;49.004;12.120;2023-05-29T13:54:50;26.80;29.80
60727;DHT22;46577;49.004;12.120;2023-05-29T13:57:15;26.90;32.40
60727;DHT22;46577;49.004;12.120;2023-05-29T13:59:41;27.00;38.20
60727;DHT22;46577;49.004;12.120;2023-05-29T14:02:07;27.00;31.90
60727;DHT22;46577;49.004;12.120;2023-05-29T14:04:33;27.00;30.20
60727;DHT22;46577;49.004;12.120;2023-05-29T14:07:00;26.50;31.20
60727;DHT22;46577;49.004;12.120;2023-05-29T14:09:26;26.50;32.40
60727;DHT22;46577;49.004;12.120;2023-05-29T14:11:54;26.60;32.30
60727;DHT22;46577;49.004;12.120;2023-05-29T14:14:21;26.50;29.60
60727;DHT22;46577;49.004;12.120;2023-05-29T14:16:47;26.50;31.70
60727;DHT22;46577;49.004;12.120;2023-05-29T14:19:13;26.70;37.20
60727;DHT22;46577;49.004;12.120;2023-05-29T14:21:38;26.80;31.70
60727;DHT22;46577;49.004;12.120;2023-05-29T14:24:04;26.80;32.20
60727;DHT22;46577;49.004;12.120;2023-05-29T14:26:30;26.80;34.70
60727;DHT22;46577;49.004;12.120;2023-05-29T14:28:55;26.50;29.20
60727;DHT22;46577;49.004;12.120;2023-05-29T14:31:21;26.40;33.40
60727;DHT22;46577;49.004;12.120;2023-05-29T14:33:47;26.50;35.20
60727;DHT22;46577;49.004;12.120;2023-05-29T14:36:13;26.60;31.10
60727;DHT22;46577;49.004;12.120;2023-05-29T14:38:38;26.60;31.90
60727;DHT22;46577;49.004;12.120;2023-05-29T14:41:04;26.60;30.20
60727;DHT22;46577;49.004;12.120;2023-05-29T14:43:30;26.30;29.60
60727;DHT22;46577;49.004;12.120;2023-05-29T14:45:55;26.00;30.20
60727;DHT22;46577;49.004;12.120;2023-05-29T14:48:21;25.90;29.70
60727;DHT22;46577;49.004;12.120;2023-05-29T14:50:46;26.00;31.00
60727;DHT22;46577;49.004;12.120;2023-05-29T14:53:12;26.20;29.50
60727;DHT22;46577;49.004;12.120;2023-05-29T14:55:37;26.10;28.30
60727;DHT22;46577;49.004;12.120;2023-05-29T14:58:05;26.10;29.70
60727;DHT22;46577;49.004;12.120;2023-05-29T15:00:30;26.00;29.60
60727;DHT22;46577;49.004;12.120;2023-05-29T15:02:56;26.10;32.20
60727;DHT22;46577;49.004;12.120;2023-05-29T15:05:25;26.30;31.30
60727;DHT22;46577;49.004;12.120;2023-05-29T15:07:51;26.40;34.20
60727;DHT22;46577;49.004;12.120;2023-05-29T15:10:17;26.40;30.70
60727;DHT22;46577;49.004;12.120;2023-05-29T15:12:45;26.40;29.00
60727;DHT22;46577;49.004;12.120;2023-05-29T15:15:11;26.30;30.80
60727;DHT22;46577;49.004;12.120;2023-05-29T15:17:37;26.30;28.60
60727;DHT22;46577;49.004;12.120;2023-05-29T15:20:04;26.30;29.80
60727;DHT22;46577;49.004;12.120;2023-05-29T15:22:29;26.10;29.20
60727;DHT22;46577;49.004;12.120;2023-05-29T15:24:55;26.10;30.70
60727;DHT22;46577;49.004;12.120;2023-05-29T15:27:21;26.10;30.00
60727;DHT22;46577;49.004;12.120;2023-05-29T15:29:46;26.10;31.40
60727;DHT22;46577;49.004;12.120;2023-05-29T15:32:12;26.10;30.70
60727;DHT22;46577;49.004;12.120;2023-05-29T15:34:37;26.10;32.30
60727;DHT22;46577;49.004;12.120;2023-05-29T15:37:06;26.10;29.90
60727;DHT22;46577;49.004;12.120;2023-05-29T15:39:31;26.10;29.60
60727;DHT22;46577;49.004;12.120;2023-05-29T15:41:57;26.10;33.40